sensor_id;sensor_type;location;lat;lon;timestamp;temperature;humidity
54168;DHT22;40072;50.958;3.592;2023-02-27T00:02:24;2.10;99.90
54168;DHT22;40072;50.958;3.592;2023-02-27T00:04:50;2.00;99.90
54168;DHT22;40072;50.958;3.592;2023-02-27T00:07:15;2.00;99.90
54168;DHT22;40072;50.958;3.592;2023-02-27T00:09:42;2.00;99.90
54168;DHT22;40072;50.958;3.592;2023-02-27T00:12:09;2.00;99.90
54168;DHT22;40072;50.958;3.592;2023-02-27T00:14:35;2.00;99.90
54168;DHT22;40072;50.958;3.592;2023-02-27T00:17:01;2.00;99.90
54168;DHT22;40072;50.958;3.592;2023-02-27T00:19:27;2.00;99.90
54168;DHT22;40072;50.958;3.592;2023-02-27T00:21:52;1.90;99.90
54168;DHT22;40072;50.958;3.592;2023-02-27T00:24:18;1.90;99.90
54168;DHT22;40072;50.958;3.592;2023-02-27T00:26:44;1.70;99.90
54168;DHT22;40072;50.958;3.592;2023-02-27T00:29:09;1.80;99.90
54168;DHT22;40072;50.958;3.592;2023-02-27T00:31:35;1.90;99.90
54168;DHT22;40072;50.958;3.592;2023-02-27T00:34:01;2.00;99.90
54168;DHT22;40072;50.958;3.592;2023-02-27T00:36:27;1.90;99.90
54168;DHT22;40072;50.958;3.592;2023-02-27T00:38:52;1.90;99.90
54168;DHT22;40072;50.958;3.592;2023-02-27T00:41:18;1.80;99.90
54168;DHT22;40072;50.958;3.592;2023-02-27T00:43:44;1.90;99.90
54168;DHT22;40072;50.958;3.592;2023-02-27T00:46:09;1.80;99.90
54168;DHT22;40072;50.958;3.592;2023-02-27T00:48:35;1.80;99.90
54168;DHT22;40072;50.958;3.592;2023-02-27T00:51:01;1.80;99.90
54168;DHT22;40072;50.958;3.592;2023-02-27T00:53:27;1.80;99.90
54168;DHT22;40072;50.958;3.592;2023-02-27T00:55:53;1.80;99.90
54168;DHT22;40072;50.958;3.592;2023-02-27T00:58:18;1.80;99.90
54168;DHT22;40072;50.958;3.592;2023-02-27T01:00:44;1.70;99.90
54168;DHT22;40072;50.958;3.592;2023-02-27T01:03:10;1.70;99.90
54168;DHT22;40072;50.958;3.592;2023-02-27T01:05:36;1.70;99.90
54168;DHT22;40072;50.958;3.592;2023-02-27T01:08:02;1.70;99.90
54168;DHT22;40072;50.958;3.592;2023-02-27T01:10:27;1.70;99.90
54168;DHT22;40072;50.958;3.592;2023-02-27T01:12:53;1.70;99.90
54168;DHT22;40072;50.958;3.592;2023-02-27T01:15:19;1.70;99.90
54168;DHT22;40072;50.958;3.592;2023-02-27T01:17:45;1.60;99.90
54168;DHT22;40072;50.958;3.592;2023-02-27T01:20:12;1.50;99.90
54168;DHT22;40072;50.958;3.592;2023-02-27T01:22:38;1.50;99.90
54168;DHT22;40072;50.958;3.592;2023-02-27T01:25:05;1.50;99.90
54168;DHT22;40072;50.958;3.592;2023-02-27T01:27:30;1.40;99.90
54168;DHT22;40072;50.958;3.592;2023-02-27T01:29:56;1.50;99.90
54168;DHT22;40072;50.958;3.592;2023-02-27T01:32:22;1.50;99.90
54168;DHT22;40072;50.958;3.592;2023-02-27T01:34:47;1.50;99.90
54168;DHT22;40072;50.958;3.592;2023-02-27T01:37:13;1.50;99.90
54168;DHT22;40072;50.958;3.592;2023-02-27T01:39:39;1.60;99.90
54168;DHT22;40072;50.958;3.592;2023-02-27T01:42:12;1.40;99.90
54168;DHT22;40072;50.958;3.592;2023-02-27T01:47:27;1.30;99.90
54168;DHT22;40072;50.958;3.592;2023-02-27T01:49:52;1.50;99.90
54168;DHT22;40072;50.958;3.592;2023-02-27T01:52:18;1.50;99.90
54168;DHT22;40072;50.958;3.592;2023-02-27T01:54:44;1.50;99.90
54168;DHT22;40072;50.958;3.592;2023-02-27T01:57:09;1.60;99.90
54168;DHT22;40072;50.958;3.592;2023-02-27T01:59:37;1.50;99.90
54168;DHT22;40072;50.958;3.592;2023-02-27T02:02:13;1.40;99.90
54168;DHT22;40072;50.958;3.592;2023-02-27T02:04:41;1.40;99.90
54168;DHT22;40072;50.958;3.592;2023-02-27T02:07:14;1.10;99.90
54168;DHT22;40072;50.958;3.592;2023-02-27T02:09:45;1.10;99.90
54168;DHT22;40072;50.958;3.592;2023-02-27T02:12:13;1.20;99.90
54168;DHT22;40072;50.958;3.592;2023-02-27T02:14:39;1.00;99.90
54168;DHT22;40072;50.958;3.592;2023-02-27T02:17:15;1.10;99.90
54168;DHT22;40072;50.958;3.592;2023-02-27T02:28:06;1.10;99.90
54168;DHT22;40072;50.958;3.592;2023-02-27T02:31:11;1.00;99.90
54168;DHT22;40072;50.958;3.592;2023-02-27T02:42:35;0.90;99.90
54168;DHT22;40072;50.958;3.592;2023-02-27T02:45:23;0.90;99.90
54168;DHT22;40072;50.958;3.592;2023-02-27T02:50:48;0.80;99.90
54168;DHT22;40072;50.958;3.592;2023-02-27T02:53:19;0.90;99.90
54168;DHT22;40072;50.958;3.592;2023-02-27T02:58:43;1.00;99.90
54168;DHT22;40072;50.958;3.592;2023-02-27T03:01:52;1.00;99.90
54168;DHT22;40072;50.958;3.592;2023-02-27T03:04:16;1.00;99.90
54168;DHT22;40072;50.958;3.592;2023-02-27T03:06:47;1.00;99.90
54168;DHT22;40072;50.958;3.592;2023-02-27T03:09:29;1.10;99.90
54168;DHT22;40072;50.958;3.592;2023-02-27T03:11:56;1.10;99.90
54168;DHT22;40072;50.958;3.592;2023-02-27T03:14:36;1.10;99.90
54168;DHT22;40072;50.958;3.592;2023-02-27T03:17:13;1.10;99.90
54168;DHT22;40072;50.958;3.592;2023-02-27T03:19:49;1.00;99.90
54168;DHT22;40072;50.958;3.592;2023-02-27T03:22:30;1.10;99.90
54168;DHT22;40072;50.958;3.592;2023-02-27T03:24:59;1.00;99.90
54168;DHT22;40072;50.958;3.592;2023-02-27T03:27:31;0.90;99.90
54168;DHT22;40072;50.958;3.592;2023-02-27T03:32:31;1.00;99.90
54168;DHT22;40072;50.958;3.592;2023-02-27T03:35:01;0.90;99.90
54168;DHT22;40072;50.958;3.592;2023-02-27T03:40:25;0.90;99.90
54168;DHT22;40072;50.958;3.592;2023-02-27T03:42:59;0.80;99.90
54168;DHT22;40072;50.958;3.592;2023-02-27T03:45:38;0.80;99.90
54168;DHT22;40072;50.958;3.592;2023-02-27T03:48:06;0.80;99.90
54168;DHT22;40072;50.958;3.592;2023-02-27T03:50:36;0.80;99.90
54168;DHT22;40072;50.958;3.592;2023-02-27T03:53:12;0.80;99.90
54168;DHT22;40072;50.958;3.592;2023-02-27T03:55:43;0.80;99.90
54168;DHT22;40072;50.958;3.592;2023-02-27T03:58:10;0.80;99.90
54168;DHT22;40072;50.958;3.592;2023-02-27T04:00:36;0.90;99.90
54168;DHT22;40072;50.958;3.592;2023-02-27T04:03:01;0.80;99.90
54168;DHT22;40072;50.958;3.592;2023-02-27T04:05:29;0.70;99.90
54168;DHT22;40072;50.958;3.592;2023-02-27T04:22:11;0.70;99.90
54168;DHT22;40072;50.958;3.592;2023-02-27T04:41:06;0.50;99.90
54168;DHT22;40072;50.958;3.592;2023-02-27T04:43:36;0.70;99.90
54168;DHT22;40072;50.958;3.592;2023-02-27T04:46:05;0.60;99.90
54168;DHT22;40072;50.958;3.592;2023-02-27T04:48:36;0.60;99.90
54168;DHT22;40072;50.958;3.592;2023-02-27T04:51:08;0.50;99.90
54168;DHT22;40072;50.958;3.592;2023-02-27T04:56:27;0.50;99.90
54168;DHT22;40072;50.958;3.592;2023-02-27T04:59:02;0.50;99.90
54168;DHT22;40072;50.958;3.592;2023-02-27T05:04:26;0.30;99.90
54168;DHT22;40072;50.958;3.592;2023-02-27T05:06:53;0.20;99.90
54168;DHT22;40072;50.958;3.592;2023-02-27T05:09:42;0.40;99.90
54168;DHT22;40072;50.958;3.592;2023-02-27T05:12:23;0.10;99.90
54168;DHT22;40072;50.958;3.592;2023-02-27T05:14:54;0.20;99.90
54168;DHT22;40072;50.958;3.592;2023-02-27T05:17:25;0.00;99.90
54168;DHT22;40072;50.958;3.592;2023-02-27T05:19:54;-0.20;99.90
54168;DHT22;40072;50.958;3.592;2023-02-27T05:25:00;-0.60;99.90
54168;DHT22;40072;50.958;3.592;2023-02-27T05:27:30;-0.70;99.90
54168;DHT22;40072;50.958;3.592;2023-02-27T05:30:24;-0.70;99.90
54168;DHT22;40072;50.958;3.592;2023-02-27T05:33:03;-0.60;99.90
54168;DHT22;40072;50.958;3.592;2023-02-27T05:40:47;-0.20;99.90
54168;DHT22;40072;50.958;3.592;2023-02-27T05:43:27;-0.20;99.90
54168;DHT22;40072;50.958;3.592;2023-02-27T05:45:58;-0.50;99.90
54168;DHT22;40072;50.958;3.592;2023-02-27T05:48:34;-0.70;99.90
54168;DHT22;40072;50.958;3.592;2023-02-27T05:51:02;-0.80;99.90
54168;DHT22;40072;50.958;3.592;2023-02-27T05:53:33;-0.80;99.90
54168;DHT22;40072;50.958;3.592;2023-02-27T05:56:03;-1.00;99.90
54168;DHT22;40072;50.958;3.592;2023-02-27T05:58:43;-1.10;99.90
54168;DHT22;40072;50.958;3.592;2023-02-27T06:01:11;-1.10;99.90
54168;DHT22;40072;50.958;3.592;2023-02-27T06:03:38;-1.20;99.90
54168;DHT22;40072;50.958;3.592;2023-02-27T06:06:16;-1.10;99.90
54168;DHT22;40072;50.958;3.592;2023-02-27T06:08:42;-1.00;99.90
54168;DHT22;40072;50.958;3.592;2023-02-27T06:11:08;-1.00;99.90
54168;DHT22;40072;50.958;3.592;2023-02-27T06:13:34;-1.00;99.90
54168;DHT22;40072;50.958;3.592;2023-02-27T06:16:00;-1.10;99.90
54168;DHT22;40072;50.958;3.592;2023-02-27T06:18:25;-1.20;99.90
54168;DHT22;40072;50.958;3.592;2023-02-27T06:20:51;-1.20;99.90
54168;DHT22;40072;50.958;3.592;2023-02-27T06:23:17;-1.20;99.90
54168;DHT22;40072;50.958;3.592;2023-02-27T06:25:43;-1.30;99.90
54168;DHT22;40072;50.958;3.592;2023-02-27T06:28:09;-1.20;99.90
54168;DHT22;40072;50.958;3.592;2023-02-27T06:30:35;-1.30;99.90
54168;DHT22;40072;50.958;3.592;2023-02-27T06:33:01;-1.40;99.90
54168;DHT22;40072;50.958;3.592;2023-02-27T06:35:27;-1.50;99.90
54168;DHT22;40072;50.958;3.592;2023-02-27T06:37:56;-1.40;99.90
54168;DHT22;40072;50.958;3.592;2023-02-27T06:40:23;-1.60;99.90
54168;DHT22;40072;50.958;3.592;2023-02-27T06:42:49;-1.60;99.90
54168;DHT22;40072;50.958;3.592;2023-02-27T06:45:15;-1.60;99.90
54168;DHT22;40072;50.958;3.592;2023-02-27T06:47:41;-1.50;99.90
54168;DHT22;40072;50.958;3.592;2023-02-27T06:50:08;-1.20;99.90
54168;DHT22;40072;50.958;3.592;2023-02-27T06:52:36;-1.20;99.90
54168;DHT22;40072;50.958;3.592;2023-02-27T06:55:03;-1.20;99.90
54168;DHT22;40072;50.958;3.592;2023-02-27T06:57:29;-1.20;99.90
54168;DHT22;40072;50.958;3.592;2023-02-27T06:59:54;-1.20;99.90
54168;DHT22;40072;50.958;3.592;2023-02-27T07:02:20;-1.00;99.90
54168;DHT22;40072;50.958;3.592;2023-02-27T07:04:48;-0.90;99.90
54168;DHT22;40072;50.958;3.592;2023-02-27T07:07:13;-0.90;99.90
54168;DHT22;40072;50.958;3.592;2023-02-27T07:09:39;-0.90;99.90
54168;DHT22;40072;50.958;3.592;2023-02-27T07:12:05;-0.90;99.90
54168;DHT22;40072;50.958;3.592;2023-02-27T07:14:32;-0.80;99.90
54168;DHT22;40072;50.958;3.592;2023-02-27T07:16:58;-0.60;99.90
54168;DHT22;40072;50.958;3.592;2023-02-27T07:19:27;-0.70;99.90
54168;DHT22;40072;50.958;3.592;2023-02-27T07:21:53;-0.50;99.90
54168;DHT22;40072;50.958;3.592;2023-02-27T07:24:19;-0.40;99.90
54168;DHT22;40072;50.958;3.592;2023-02-27T07:26:44;-0.20;99.90
54168;DHT22;40072;50.958;3.592;2023-02-27T07:29:10;0.00;99.90
54168;DHT22;40072;50.958;3.592;2023-02-27T07:31:36;0.40;99.90
54168;DHT22;40072;50.958;3.592;2023-02-27T07:34:02;0.90;99.90
54168;DHT22;40072;50.958;3.592;2023-02-27T07:36:27;1.20;99.90
54168;DHT22;40072;50.958;3.592;2023-02-27T07:38:55;1.40;99.90
54168;DHT22;40072;50.958;3.592;2023-02-27T07:41:22;1.70;99.90
54168;DHT22;40072;50.958;3.592;2023-02-27T07:43:48;2.40;99.90
54168;DHT22;40072;50.958;3.592;2023-02-27T07:46:14;3.50;99.90
54168;DHT22;40072;50.958;3.592;2023-02-27T07:48:39;4.20;99.90
54168;DHT22;40072;50.958;3.592;2023-02-27T07:51:05;5.10;99.90
54168;DHT22;40072;50.958;3.592;2023-02-27T07:53:31;5.20;99.90
54168;DHT22;40072;50.958;3.592;2023-02-27T07:55:57;4.70;99.90
54168;DHT22;40072;50.958;3.592;2023-02-27T07:58:22;4.10;99.90
54168;DHT22;40072;50.958;3.592;2023-02-27T08:00:48;3.40;99.90
54168;DHT22;40072;50.958;3.592;2023-02-27T08:03:14;3.70;99.90
54168;DHT22;40072;50.958;3.592;2023-02-27T08:05:39;3.60;99.90
54168;DHT22;40072;50.958;3.592;2023-02-27T08:08:05;3.70;99.90
54168;DHT22;40072;50.958;3.592;2023-02-27T08:10:31;4.30;99.90
54168;DHT22;40072;50.958;3.592;2023-02-27T08:12:56;4.70;99.90
54168;DHT22;40072;50.958;3.592;2023-02-27T08:15:22;4.20;99.90
54168;DHT22;40072;50.958;3.592;2023-02-27T08:17:49;3.50;99.90
54168;DHT22;40072;50.958;3.592;2023-02-27T08:20:15;3.70;99.90
54168;DHT22;40072;50.958;3.592;2023-02-27T08:22:41;3.50;99.90
54168;DHT22;40072;50.958;3.592;2023-02-27T08:25:08;3.70;99.90
54168;DHT22;40072;50.958;3.592;2023-02-27T08:27:36;4.10;99.90
54168;DHT22;40072;50.958;3.592;2023-02-27T08:30:02;4.00;99.90
54168;DHT22;40072;50.958;3.592;2023-02-27T08:32:28;4.50;99.90
54168;DHT22;40072;50.958;3.592;2023-02-27T08:34:54;4.40;99.90
54168;DHT22;40072;50.958;3.592;2023-02-27T08:37:20;3.60;99.90
54168;DHT22;40072;50.958;3.592;2023-02-27T08:39:45;3.50;99.90
54168;DHT22;40072;50.958;3.592;2023-02-27T08:42:11;3.20;99.90
54168;DHT22;40072;50.958;3.592;2023-02-27T08:44:37;3.30;99.90
54168;DHT22;40072;50.958;3.592;2023-02-27T08:47:03;3.60;99.90
54168;DHT22;40072;50.958;3.592;2023-02-27T08:49:28;4.00;99.90
54168;DHT22;40072;50.958;3.592;2023-02-27T08:51:54;4.20;99.90
54168;DHT22;40072;50.958;3.592;2023-02-27T08:54:20;4.40;99.90
54168;DHT22;40072;50.958;3.592;2023-02-27T08:56:46;4.50;99.90
54168;DHT22;40072;50.958;3.592;2023-02-27T08:59:12;4.90;99.90
54168;DHT22;40072;50.958;3.592;2023-02-27T09:01:38;5.10;99.90
54168;DHT22;40072;50.958;3.592;2023-02-27T09:04:04;5.10;99.90
54168;DHT22;40072;50.958;3.592;2023-02-27T09:06:32;5.40;99.90
54168;DHT22;40072;50.958;3.592;2023-02-27T09:08:58;5.90;99.90
54168;DHT22;40072;50.958;3.592;2023-02-27T09:11:25;6.30;99.90
54168;DHT22;40072;50.958;3.592;2023-02-27T09:13:51;5.60;99.90
54168;DHT22;40072;50.958;3.592;2023-02-27T09:16:21;6.00;99.90
54168;DHT22;40072;50.958;3.592;2023-02-27T09:18:48;6.50;99.60
54168;DHT22;40072;50.958;3.592;2023-02-27T09:21:13;5.90;99.50
54168;DHT22;40072;50.958;3.592;2023-02-27T09:23:39;6.20;99.60
54168;DHT22;40072;50.958;3.592;2023-02-27T09:26:05;6.40;99.50
54168;DHT22;40072;50.958;3.592;2023-02-27T09:28:33;6.60;99.10
54168;DHT22;40072;50.958;3.592;2023-02-27T09:31:00;6.40;98.80
54168;DHT22;40072;50.958;3.592;2023-02-27T09:33:26;6.40;99.30
54168;DHT22;40072;50.958;3.592;2023-02-27T09:35:53;7.40;97.90
54168;DHT22;40072;50.958;3.592;2023-02-27T09:38:19;6.20;98.80
54168;DHT22;40072;50.958;3.592;2023-02-27T09:40:46;6.90;97.80
54168;DHT22;40072;50.958;3.592;2023-02-27T09:43:20;7.00;97.80
54168;DHT22;40072;50.958;3.592;2023-02-27T09:45:52;7.00;97.80
54168;DHT22;40072;50.958;3.592;2023-02-27T09:50:57;5.80;98.50
54168;DHT22;40072;50.958;3.592;2023-02-27T09:53:29;6.40;99.00
54168;DHT22;40072;50.958;3.592;2023-02-27T09:56:12;6.60;97.70
54168;DHT22;40072;50.958;3.592;2023-02-27T10:01:19;7.50;96.90
54168;DHT22;40072;50.958;3.592;2023-02-27T10:06:15;7.80;95.50
54168;DHT22;40072;50.958;3.592;2023-02-27T10:11:29;7.30;96.40
54168;DHT22;40072;50.958;3.592;2023-02-27T10:14:05;6.70;96.90
54168;DHT22;40072;50.958;3.592;2023-02-27T10:16:36;7.30;97.10
54168;DHT22;40072;50.958;3.592;2023-02-27T10:19:05;8.10;95.20
54168;DHT22;40072;50.958;3.592;2023-02-27T10:21:41;7.80;95.60
54168;DHT22;40072;50.958;3.592;2023-02-27T10:26:42;7.80;95.40
54168;DHT22;40072;50.958;3.592;2023-02-27T10:29:28;7.90;95.60
54168;DHT22;40072;50.958;3.592;2023-02-27T10:34:36;7.50;95.70
54168;DHT22;40072;50.958;3.592;2023-02-27T10:37:04;8.60;94.80
54168;DHT22;40072;50.958;3.592;2023-02-27T10:39:47;8.50;94.40
54168;DHT22;40072;50.958;3.592;2023-02-27T10:42:15;7.60;95.60
54168;DHT22;40072;50.958;3.592;2023-02-27T10:44:41;7.80;95.00
54168;DHT22;40072;50.958;3.592;2023-02-27T10:47:13;7.20;94.80
54168;DHT22;40072;50.958;3.592;2023-02-27T10:49:40;7.90;94.20
54168;DHT22;40072;50.958;3.592;2023-02-27T10:52:12;7.70;94.70
54168;DHT22;40072;50.958;3.592;2023-02-27T10:54:40;8.40;94.70
54168;DHT22;40072;50.958;3.592;2023-02-27T10:57:28;8.80;93.90
54168;DHT22;40072;50.958;3.592;2023-02-27T11:00:00;9.10;92.40
54168;DHT22;40072;50.958;3.592;2023-02-27T11:02:39;8.30;92.30
54168;DHT22;40072;50.958;3.592;2023-02-27T11:05:28;7.80;93.70
54168;DHT22;40072;50.958;3.592;2023-02-27T11:07:54;8.20;92.80
54168;DHT22;40072;50.958;3.592;2023-02-27T11:10:24;8.00;92.70
54168;DHT22;40072;50.958;3.592;2023-02-27T11:13:00;8.20;92.40
54168;DHT22;40072;50.958;3.592;2023-02-27T11:15:31;8.30;92.80
54168;DHT22;40072;50.958;3.592;2023-02-27T11:18:19;8.50;92.00
54168;DHT22;40072;50.958;3.592;2023-02-27T11:20:46;8.20;92.90
54168;DHT22;40072;50.958;3.592;2023-02-27T11:23:23;8.10;93.20
54168;DHT22;40072;50.958;3.592;2023-02-27T11:25:49;8.80;92.10
54168;DHT22;40072;50.958;3.592;2023-02-27T11:30:57;8.80;91.70
54168;DHT22;40072;50.958;3.592;2023-02-27T11:33:25;8.70;92.50
54168;DHT22;40072;50.958;3.592;2023-02-27T11:35:53;8.60;92.70
54168;DHT22;40072;50.958;3.592;2023-02-27T11:38:21;10.00;92.00
54168;DHT22;40072;50.958;3.592;2023-02-27T11:40:50;9.70;91.30
54168;DHT22;40072;50.958;3.592;2023-02-27T11:45:57;8.60;92.90
54168;DHT22;40072;50.958;3.592;2023-02-27T11:52:12;10.60;90.50
54168;DHT22;40072;50.958;3.592;2023-02-27T11:54:42;11.20;88.90
54168;DHT22;40072;50.958;3.592;2023-02-27T11:57:28;9.60;89.20
54168;DHT22;40072;50.958;3.592;2023-02-27T12:00:04;9.90;90.60
54168;DHT22;40072;50.958;3.592;2023-02-27T12:05:26;8.80;91.90
54168;DHT22;40072;50.958;3.592;2023-02-27T12:11:30;9.90;90.50
54168;DHT22;40072;50.958;3.592;2023-02-27T12:13:39;11.10;89.60
54168;DHT22;40072;50.958;3.592;2023-02-27T12:18:58;10.20;90.00
54168;DHT22;40072;50.958;3.592;2023-02-27T12:21:35;8.70;91.70
54168;DHT22;40072;50.958;3.592;2023-02-27T12:24:14;9.90;90.40
54168;DHT22;40072;50.958;3.592;2023-02-27T12:26:44;9.40;90.10
54168;DHT22;40072;50.958;3.592;2023-02-27T12:29:24;9.10;90.70
54168;DHT22;40072;50.958;3.592;2023-02-27T12:34:55;9.30;90.20
54168;DHT22;40072;50.958;3.592;2023-02-27T12:37:25;11.00;89.80
54168;DHT22;40072;50.958;3.592;2023-02-27T12:39:54;12.90;84.60
54168;DHT22;40072;50.958;3.592;2023-02-27T12:44:56;11.60;84.70
54168;DHT22;40072;50.958;3.592;2023-02-27T12:50:34;10.30;87.90
54168;DHT22;40072;50.958;3.592;2023-02-27T12:55:50;11.60;83.90
54168;DHT22;40072;50.958;3.592;2023-02-27T12:58:24;13.00;81.40
54168;DHT22;40072;50.958;3.592;2023-02-27T13:01:02;12.70;81.70
54168;DHT22;40072;50.958;3.592;2023-02-27T13:06:16;10.20;84.40
54168;DHT22;40072;50.958;3.592;2023-02-27T13:13:59;10.40;83.20
54168;DHT22;40072;50.958;3.592;2023-02-27T13:16:49;11.10;82.80
54168;DHT22;40072;50.958;3.592;2023-02-27T13:19:30;12.70;80.50
54168;DHT22;40072;50.958;3.592;2023-02-27T13:22:13;13.60;79.50
54168;DHT22;40072;50.958;3.592;2023-02-27T13:24:50;14.00;77.70
54168;DHT22;40072;50.958;3.592;2023-02-27T13:30:03;11.90;80.10
54168;DHT22;40072;50.958;3.592;2023-02-27T13:32:51;10.40;81.90
54168;DHT22;40072;50.958;3.592;2023-02-27T13:35:46;11.30;80.80
54168;DHT22;40072;50.958;3.592;2023-02-27T13:44:36;12.80;78.60
54168;DHT22;40072;50.958;3.592;2023-02-27T13:46:45;10.80;80.90
54168;DHT22;40072;50.958;3.592;2023-02-27T13:59:28;10.20;81.10
54168;DHT22;40072;50.958;3.592;2023-02-27T14:01:55;10.50;82.00
54168;DHT22;40072;50.958;3.592;2023-02-27T14:04:23;11.10;81.30
54168;DHT22;40072;50.958;3.592;2023-02-27T14:06:56;11.10;80.70
54168;DHT22;40072;50.958;3.592;2023-02-27T14:09:23;10.90;81.90
54168;DHT22;40072;50.958;3.592;2023-02-27T14:11:55;10.30;83.10
54168;DHT22;40072;50.958;3.592;2023-02-27T14:14:37;10.20;83.00
54168;DHT22;40072;50.958;3.592;2023-02-27T14:17:04;10.90;82.20
54168;DHT22;40072;50.958;3.592;2023-02-27T14:24:53;10.10;81.90
54168;DHT22;40072;50.958;3.592;2023-02-27T14:27:46;8.50;85.30
54168;DHT22;40072;50.958;3.592;2023-02-27T14:33:19;8.70;83.80
54168;DHT22;40072;50.958;3.592;2023-02-27T14:35:50;8.70;84.20
54168;DHT22;40072;50.958;3.592;2023-02-27T14:38:18;8.40;86.50
54168;DHT22;40072;50.958;3.592;2023-02-27T14:41:10;8.90;87.10
54168;DHT22;40072;50.958;3.592;2023-02-27T14:43:43;10.10;83.90
54168;DHT22;40072;50.958;3.592;2023-02-27T14:49:01;9.20;85.20
54168;DHT22;40072;50.958;3.592;2023-02-27T14:51:30;8.90;86.20
54168;DHT22;40072;50.958;3.592;2023-02-27T14:56:32;8.60;87.00
54168;DHT22;40072;50.958;3.592;2023-02-27T14:58:59;8.40;88.10
54168;DHT22;40072;50.958;3.592;2023-02-27T15:01:26;8.70;87.70
54168;DHT22;40072;50.958;3.592;2023-02-27T15:03:56;8.70;87.30
54168;DHT22;40072;50.958;3.592;2023-02-27T15:06:35;8.50;87.30
54168;DHT22;40072;50.958;3.592;2023-02-27T15:09:02;8.80;87.60
54168;DHT22;40072;50.958;3.592;2023-02-27T15:11:28;9.40;84.70
54168;DHT22;40072;50.958;3.592;2023-02-27T15:14:02;8.90;86.30
54168;DHT22;40072;50.958;3.592;2023-02-27T15:19:10;7.60;90.20
54168;DHT22;40072;50.958;3.592;2023-02-27T15:21:39;7.60;90.20
54168;DHT22;40072;50.958;3.592;2023-02-27T15:24:06;7.90;89.90
54168;DHT22;40072;50.958;3.592;2023-02-27T15:26:38;8.40;89.50
54168;DHT22;40072;50.958;3.592;2023-02-27T15:29:05;7.60;90.10
54168;DHT22;40072;50.958;3.592;2023-02-27T15:31:33;7.60;90.50
54168;DHT22;40072;50.958;3.592;2023-02-27T15:34:00;6.90;91.10
54168;DHT22;40072;50.958;3.592;2023-02-27T15:36:33;6.60;92.10
54168;DHT22;40072;50.958;3.592;2023-02-27T15:39:15;6.70;92.10
54168;DHT22;40072;50.958;3.592;2023-02-27T15:41:45;6.60;92.50
54168;DHT22;40072;50.958;3.592;2023-02-27T15:44:14;6.90;92.80
54168;DHT22;40072;50.958;3.592;2023-02-27T15:46:41;7.40;91.20
54168;DHT22;40072;50.958;3.592;2023-02-27T15:49:15;7.20;92.10
54168;DHT22;40072;50.958;3.592;2023-02-27T15:51:41;6.90;92.00
54168;DHT22;40072;50.958;3.592;2023-02-27T15:54:08;6.80;92.10
54168;DHT22;40072;50.958;3.592;2023-02-27T15:56:36;6.90;92.20
54168;DHT22;40072;50.958;3.592;2023-02-27T15:59:03;7.60;92.00
54168;DHT22;40072;50.958;3.592;2023-02-27T16:01:31;8.10;91.20
54168;DHT22;40072;50.958;3.592;2023-02-27T16:04:04;8.00;91.20
54168;DHT22;40072;50.958;3.592;2023-02-27T16:06:33;7.70;91.30
54168;DHT22;40072;50.958;3.592;2023-02-27T16:09:04;7.20;91.60
54168;DHT22;40072;50.958;3.592;2023-02-27T16:11:35;7.30;92.10
54168;DHT22;40072;50.958;3.592;2023-02-27T16:14:02;7.80;91.20
54168;DHT22;40072;50.958;3.592;2023-02-27T16:16:34;7.10;92.00
54168;DHT22;40072;50.958;3.592;2023-02-27T16:19:29;7.00;92.80
54168;DHT22;40072;50.958;3.592;2023-02-27T16:24:37;6.60;92.60
54168;DHT22;40072;50.958;3.592;2023-02-27T16:27:03;6.40;92.90
54168;DHT22;40072;50.958;3.592;2023-02-27T16:29:33;6.00;93.50
54168;DHT22;40072;50.958;3.592;2023-02-27T16:32:00;5.80;94.00
54168;DHT22;40072;50.958;3.592;2023-02-27T16:34:39;5.70;94.00
54168;DHT22;40072;50.958;3.592;2023-02-27T16:37:22;5.70;94.20
54168;DHT22;40072;50.958;3.592;2023-02-27T16:39:49;5.80;94.20
54168;DHT22;40072;50.958;3.592;2023-02-27T16:42:16;5.80;94.00
54168;DHT22;40072;50.958;3.592;2023-02-27T16:44:42;5.90;94.00
54168;DHT22;40072;50.958;3.592;2023-02-27T16:47:08;5.80;94.10
54168;DHT22;40072;50.958;3.592;2023-02-27T16:49:34;5.50;94.50
54168;DHT22;40072;50.958;3.592;2023-02-27T16:51:59;5.50;94.70
54168;DHT22;40072;50.958;3.592;2023-02-27T16:54:27;5.60;94.70
54168;DHT22;40072;50.958;3.592;2023-02-27T16:56:52;5.70;94.60
54168;DHT22;40072;50.958;3.592;2023-02-27T16:59:25;5.80;94.50
54168;DHT22;40072;50.958;3.592;2023-02-27T17:01:56;5.70;94.70
54168;DHT22;40072;50.958;3.592;2023-02-27T17:04:23;5.60;94.90
54168;DHT22;40072;50.958;3.592;2023-02-27T17:06:49;5.40;95.40
54168;DHT22;40072;50.958;3.592;2023-02-27T17:09:15;5.30;95.70
54168;DHT22;40072;50.958;3.592;2023-02-27T17:11:40;5.20;95.90
54168;DHT22;40072;50.958;3.592;2023-02-27T17:14:06;5.20;96.20
54168;DHT22;40072;50.958;3.592;2023-02-27T17:16:32;5.30;96.30
54168;DHT22;40072;50.958;3.592;2023-02-27T17:18:57;5.30;96.40
54168;DHT22;40072;50.958;3.592;2023-02-27T17:21:23;5.40;96.10
54168;DHT22;40072;50.958;3.592;2023-02-27T17:23:49;5.20;96.20
54168;DHT22;40072;50.958;3.592;2023-02-27T17:26:14;5.20;96.10
54168;DHT22;40072;50.958;3.592;2023-02-27T17:28:40;5.00;96.30
54168;DHT22;40072;50.958;3.592;2023-02-27T17:31:09;4.90;96.70
54168;DHT22;40072;50.958;3.592;2023-02-27T17:33:35;4.70;97.20
54168;DHT22;40072;50.958;3.592;2023-02-27T17:36:02;4.80;97.20
54168;DHT22;40072;50.958;3.592;2023-02-27T17:38:28;4.80;97.10
54168;DHT22;40072;50.958;3.592;2023-02-27T17:40:54;4.70;97.40
54168;DHT22;40072;50.958;3.592;2023-02-27T17:43:20;4.60;97.40
54168;DHT22;40072;50.958;3.592;2023-02-27T17:45:45;4.80;97.30
54168;DHT22;40072;50.958;3.592;2023-02-27T17:48:11;5.00;97.00
54168;DHT22;40072;50.958;3.592;2023-02-27T17:50:37;5.00;96.80
54168;DHT22;40072;50.958;3.592;2023-02-27T17:53:03;5.00;97.00
54168;DHT22;40072;50.958;3.592;2023-02-27T17:55:29;4.80;97.30
54168;DHT22;40072;50.958;3.592;2023-02-27T17:57:54;4.90;97.20
54168;DHT22;40072;50.958;3.592;2023-02-27T18:00:20;4.80;97.40
54168;DHT22;40072;50.958;3.592;2023-02-27T18:02:46;4.70;97.30
54168;DHT22;40072;50.958;3.592;2023-02-27T18:05:12;4.70;97.70
54168;DHT22;40072;50.958;3.592;2023-02-27T18:07:39;4.80;97.70
54168;DHT22;40072;50.958;3.592;2023-02-27T18:10:06;4.80;97.50
54168;DHT22;40072;50.958;3.592;2023-02-27T18:12:33;4.70;97.60
54168;DHT22;40072;50.958;3.592;2023-02-27T18:15:00;4.70;97.80
54168;DHT22;40072;50.958;3.592;2023-02-27T18:17:26;4.50;98.20
54168;DHT22;40072;50.958;3.592;2023-02-27T18:19:52;4.70;98.10
54168;DHT22;40072;50.958;3.592;2023-02-27T18:22:19;4.70;98.10
54168;DHT22;40072;50.958;3.592;2023-02-27T18:24:47;4.70;98.20
54168;DHT22;40072;50.958;3.592;2023-02-27T18:27:12;4.70;98.00
54168;DHT22;40072;50.958;3.592;2023-02-27T18:29:38;4.60;98.30
54168;DHT22;40072;50.958;3.592;2023-02-27T18:32:07;4.60;98.30
54168;DHT22;40072;50.958;3.592;2023-02-27T18:34:33;4.70;98.30
54168;DHT22;40072;50.958;3.592;2023-02-27T18:36:59;4.60;98.30
54168;DHT22;40072;50.958;3.592;2023-02-27T18:39:25;4.70;98.50
54168;DHT22;40072;50.958;3.592;2023-02-27T18:41:50;4.60;98.80
54168;DHT22;40072;50.958;3.592;2023-02-27T18:44:16;4.70;98.70